sensor_id;sensor_type;location;lat;lon;timestamp;P1;durP1;ratioP1;P2;durP2;ratioP2
7383;SDS011;3733;47.994;8.820;2023-03-11T00:00:34;2.70;;;2.17;;
7383;SDS011;3733;47.994;8.820;2023-03-11T00:03:05;3.43;;;2.30;;
7383;SDS011;3733;47.994;8.820;2023-03-11T00:05:33;4.30;;;2.77;;
7383;SDS011;3733;47.994;8.820;2023-03-11T00:08:00;2.73;;;2.53;;
7383;SDS011;3733;47.994;8.820;2023-03-11T00:10:28;2.63;;;2.00;;
7383;SDS011;3733;47.994;8.820;2023-03-11T00:13:05;3.43;;;2.30;;
7383;SDS011;3733;47.994;8.820;2023-03-11T00:15:32;2.90;;;2.40;;
7383;SDS011;3733;47.994;8.820;2023-03-11T00:17:58;3.33;;;2.67;;
7383;SDS011;3733;47.994;8.820;2023-03-11T00:20:25;3.73;;;2.73;;
7383;SDS011;3733;47.994;8.820;2023-03-11T00:22:53;2.10;;;1.90;;
7383;SDS011;3733;47.994;8.820;2023-03-11T00:25:20;2.97;;;2.13;;
7383;SDS011;3733;47.994;8.820;2023-03-11T00:27:47;3.70;;;2.40;;
7383;SDS011;3733;47.994;8.820;2023-03-11T00:30:13;2.27;;;2.07;;
7383;SDS011;3733;47.994;8.820;2023-03-11T00:32:40;2.17;;;2.00;;
7383;SDS011;3733;47.994;8.820;2023-03-11T00:35:06;3.03;;;2.13;;
7383;SDS011;3733;47.994;8.820;2023-03-11T00:37:35;2.60;;;2.27;;
7383;SDS011;3733;47.994;8.820;2023-03-11T00:40:00;2.70;;;2.30;;
7383;SDS011;3733;47.994;8.820;2023-03-11T00:42:26;4.13;;;2.07;;
7383;SDS011;3733;47.994;8.820;2023-03-11T00:44:51;2.17;;;1.97;;
7383;SDS011;3733;47.994;8.820;2023-03-11T00:47:17;4.93;;;2.37;;
7383;SDS011;3733;47.994;8.820;2023-03-11T00:49:43;3.77;;;2.20;;
7383;SDS011;3733;47.994;8.820;2023-03-11T00:52:08;3.13;;;2.27;;
7383;SDS011;3733;47.994;8.820;2023-03-11T00:54:34;2.30;;;2.10;;
7383;SDS011;3733;47.994;8.820;2023-03-11T00:56:59;2.93;;;2.10;;
7383;SDS011;3733;47.994;8.820;2023-03-11T00:59:25;2.20;;;2.10;;
7383;SDS011;3733;47.994;8.820;2023-03-11T01:01:50;2.33;;;2.13;;
7383;SDS011;3733;47.994;8.820;2023-03-11T01:04:16;2.33;;;2.13;;
7383;SDS011;3733;47.994;8.820;2023-03-11T01:06:42;2.60;;;2.40;;
7383;SDS011;3733;47.994;8.820;2023-03-11T01:09:07;2.60;;;2.40;;
7383;SDS011;3733;47.994;8.820;2023-03-11T01:11:33;2.63;;;2.43;;
7383;SDS011;3733;47.994;8.820;2023-03-11T01:13:58;3.67;;;1.80;;
7383;SDS011;3733;47.994;8.820;2023-03-11T01:16:24;3.37;;;2.40;;
7383;SDS011;3733;47.994;8.820;2023-03-11T01:18:50;2.63;;;2.37;;
7383;SDS011;3733;47.994;8.820;2023-03-11T01:21:15;2.57;;;2.37;;
7383;SDS011;3733;47.994;8.820;2023-03-11T01:23:41;2.30;;;2.10;;
7383;SDS011;3733;47.994;8.820;2023-03-11T01:26:07;2.50;;;2.17;;
7383;SDS011;3733;47.994;8.820;2023-03-11T01:28:33;2.40;;;2.20;;
7383;SDS011;3733;47.994;8.820;2023-03-11T01:30:58;2.73;;;2.40;;
7383;SDS011;3733;47.994;8.820;2023-03-11T01:33:24;2.60;;;2.40;;
7383;SDS011;3733;47.994;8.820;2023-03-11T01:35:50;2.00;;;1.90;;
7383;SDS011;3733;47.994;8.820;2023-03-11T01:38:16;2.97;;;2.23;;
7383;SDS011;3733;47.994;8.820;2023-03-11T01:40:44;2.13;;;2.00;;
7383;SDS011;3733;47.994;8.820;2023-03-11T01:46:07;3.60;;;2.50;;
7383;SDS011;3733;47.994;8.820;2023-03-11T01:53:55;5.07;;;2.40;;
7383;SDS011;3733;47.994;8.820;2023-03-11T01:56:23;3.13;;;2.27;;
7383;SDS011;3733;47.994;8.820;2023-03-11T01:58:49;2.10;;;1.90;;
7383;SDS011;3733;47.994;8.820;2023-03-11T02:01:18;2.40;;;2.20;;
7383;SDS011;3733;47.994;8.820;2023-03-11T02:03:44;2.17;;;1.97;;
7383;SDS011;3733;47.994;8.820;2023-03-11T02:06:11;2.60;;;2.10;;
7383;SDS011;3733;47.994;8.820;2023-03-11T02:08:40;2.43;;;2.00;;
7383;SDS011;3733;47.994;8.820;2023-03-11T02:11:08;2.77;;;2.50;;
7383;SDS011;3733;47.994;8.820;2023-03-11T02:13:36;2.63;;;2.40;;
7383;SDS011;3733;47.994;8.820;2023-03-11T02:16:04;3.47;;;2.50;;
7383;SDS011;3733;47.994;8.820;2023-03-11T02:18:31;2.43;;;2.10;;
7383;SDS011;3733;47.994;8.820;2023-03-11T02:23:55;3.27;;;2.70;;
7383;SDS011;3733;47.994;8.820;2023-03-11T02:29:19;4.73;;;2.30;;
7383;SDS011;3733;47.994;8.820;2023-03-11T02:31:46;2.73;;;2.50;;
7383;SDS011;3733;47.994;8.820;2023-03-11T02:34:15;2.60;;;2.40;;
7383;SDS011;3733;47.994;8.820;2023-03-11T02:36:52;4.80;;;2.90;;
7383;SDS011;3733;47.994;8.820;2023-03-11T02:39:31;5.53;;;2.70;;
7383;SDS011;3733;47.994;8.820;2023-03-11T02:42:00;5.33;;;2.77;;
7383;SDS011;3733;47.994;8.820;2023-03-11T02:44:34;4.33;;;2.60;;
7383;SDS011;3733;47.994;8.820;2023-03-11T02:47:00;2.30;;;2.10;;
7383;SDS011;3733;47.994;8.820;2023-03-11T02:49:26;3.53;;;3.17;;
7383;SDS011;3733;47.994;8.820;2023-03-11T02:51:51;3.10;;;2.73;;
7383;SDS011;3733;47.994;8.820;2023-03-11T02:54:17;2.40;;;2.20;;
7383;SDS011;3733;47.994;8.820;2023-03-11T02:56:43;2.60;;;2.40;;
7383;SDS011;3733;47.994;8.820;2023-03-11T02:59:08;3.40;;;2.90;;
7383;SDS011;3733;47.994;8.820;2023-03-11T03:01:34;5.03;;;3.10;;
7383;SDS011;3733;47.994;8.820;2023-03-11T03:04:00;3.23;;;2.80;;
7383;SDS011;3733;47.994;8.820;2023-03-11T03:06:25;3.33;;;3.03;;
7383;SDS011;3733;47.994;8.820;2023-03-11T03:08:52;5.13;;;3.10;;
7383;SDS011;3733;47.994;8.820;2023-03-11T03:11:18;3.43;;;2.80;;
7383;SDS011;3733;47.994;8.820;2023-03-11T03:13:44;4.23;;;3.10;;
7383;SDS011;3733;47.994;8.820;2023-03-11T03:16:10;2.70;;;2.50;;
7383;SDS011;3733;47.994;8.820;2023-03-11T03:18:35;3.13;;;2.50;;
7383;SDS011;3733;47.994;8.820;2023-03-11T03:21:02;7.60;;;2.87;;
7383;SDS011;3733;47.994;8.820;2023-03-11T03:23:28;3.30;;;2.53;;
7383;SDS011;3733;47.994;8.820;2023-03-11T03:25:53;5.40;;;2.63;;
7383;SDS011;3733;47.994;8.820;2023-03-11T03:28:19;2.50;;;2.30;;
7383;SDS011;3733;47.994;8.820;2023-03-11T03:30:45;3.13;;;2.77;;
7383;SDS011;3733;47.994;8.820;2023-03-11T03:33:10;3.30;;;2.37;;
7383;SDS011;3733;47.994;8.820;2023-03-11T03:35:39;2.53;;;2.33;;
7383;SDS011;3733;47.994;8.820;2023-03-11T03:38:06;5.13;;;2.73;;
7383;SDS011;3733;47.994;8.820;2023-03-11T03:40:31;3.43;;;2.40;;
7383;SDS011;3733;47.994;8.820;2023-03-11T03:42:57;4.63;;;2.77;;
7383;SDS011;3733;47.994;8.820;2023-03-11T03:45:23;2.50;;;2.30;;
7383;SDS011;3733;47.994;8.820;2023-03-11T03:47:49;3.43;;;2.50;;
7383;SDS011;3733;47.994;8.820;2023-03-11T03:50:14;4.27;;;2.60;;
7383;SDS011;3733;47.994;8.820;2023-03-11T03:52:40;3.13;;;2.77;;
7383;SDS011;3733;47.994;8.820;2023-03-11T03:55:05;4.37;;;2.50;;
7383;SDS011;3733;47.994;8.820;2023-03-11T03:57:31;2.73;;;2.50;;
7383;SDS011;3733;47.994;8.820;2023-03-11T03:59:57;2.70;;;2.50;;
7383;SDS011;3733;47.994;8.820;2023-03-11T04:02:23;5.00;;;2.90;;
7383;SDS011;3733;47.994;8.820;2023-03-11T04:04:48;2.80;;;2.50;;
7383;SDS011;3733;47.994;8.820;2023-03-11T04:07:14;2.83;;;2.53;;
7383;SDS011;3733;47.994;8.820;2023-03-11T04:09:41;5.93;;;2.80;;
7383;SDS011;3733;47.994;8.820;2023-03-11T04:12:10;2.63;;;2.27;;
7383;SDS011;3733;47.994;8.820;2023-03-11T04:14:38;2.60;;;2.40;;
7383;SDS011;3733;47.994;8.820;2023-03-11T04:17:04;4.23;;;1.97;;
7383;SDS011;3733;47.994;8.820;2023-03-11T04:19:30;2.60;;;1.90;;
7383;SDS011;3733;47.994;8.820;2023-03-11T04:21:56;2.50;;;2.17;;
7383;SDS011;3733;47.994;8.820;2023-03-11T04:24:22;3.70;;;2.03;;
7383;SDS011;3733;47.994;8.820;2023-03-11T04:26:47;4.13;;;2.70;;
7383;SDS011;3733;47.994;8.820;2023-03-11T04:29:13;3.60;;;2.17;;
7383;SDS011;3733;47.994;8.820;2023-03-11T04:31:38;2.63;;;2.00;;
7383;SDS011;3733;47.994;8.820;2023-03-11T04:34:04;2.47;;;2.00;;
7383;SDS011;3733;47.994;8.820;2023-03-11T04:36:30;2.57;;;2.37;;
7383;SDS011;3733;47.994;8.820;2023-03-11T04:38:55;3.57;;;2.17;;
7383;SDS011;3733;47.994;8.820;2023-03-11T04:41:21;3.57;;;2.07;;
7383;SDS011;3733;47.994;8.820;2023-03-11T04:43:47;2.20;;;2.00;;
7383;SDS011;3733;47.994;8.820;2023-03-11T04:46:13;2.10;;;1.87;;
7383;SDS011;3733;47.994;8.820;2023-03-11T04:48:39;2.50;;;1.80;;
7383;SDS011;3733;47.994;8.820;2023-03-11T04:51:04;3.43;;;2.13;;
7383;SDS011;3733;47.994;8.820;2023-03-11T04:53:30;2.10;;;1.90;;
7383;SDS011;3733;47.994;8.820;2023-03-11T04:55:55;2.20;;;2.00;;
7383;SDS011;3733;47.994;8.820;2023-03-11T04:58:21;2.03;;;1.93;;
7383;SDS011;3733;47.994;8.820;2023-03-11T05:00:47;3.73;;;2.33;;
7383;SDS011;3733;47.994;8.820;2023-03-11T05:03:12;2.40;;;2.03;;
7383;SDS011;3733;47.994;8.820;2023-03-11T05:05:38;2.30;;;1.77;;
7383;SDS011;3733;47.994;8.820;2023-03-11T05:08:03;2.17;;;2.07;;
7383;SDS011;3733;47.994;8.820;2023-03-11T05:10:29;2.27;;;2.10;;
7383;SDS011;3733;47.994;8.820;2023-03-11T05:12:55;5.57;;;2.00;;
7383;SDS011;3733;47.994;8.820;2023-03-11T05:15:20;3.70;;;2.33;;
7383;SDS011;3733;47.994;8.820;2023-03-11T05:17:46;2.00;;;1.90;;
7383;SDS011;3733;47.994;8.820;2023-03-11T05:20:11;4.97;;;2.00;;
7383;SDS011;3733;47.994;8.820;2023-03-11T05:22:37;3.23;;;1.60;;
7383;SDS011;3733;47.994;8.820;2023-03-11T05:25:04;3.23;;;1.73;;
7383;SDS011;3733;47.994;8.820;2023-03-11T05:27:30;2.60;;;1.73;;
7383;SDS011;3733;47.994;8.820;2023-03-11T05:29:56;2.70;;;1.80;;
7383;SDS011;3733;47.994;8.820;2023-03-11T05:32:21;1.70;;;1.60;;
7383;SDS011;3733;47.994;8.820;2023-03-11T05:34:47;3.30;;;1.83;;
7383;SDS011;3733;47.994;8.820;2023-03-11T05:37:14;2.63;;;2.43;;
7383;SDS011;3733;47.994;8.820;2023-03-11T05:39:40;2.70;;;1.80;;
7383;SDS011;3733;47.994;8.820;2023-03-11T05:42:06;1.83;;;1.73;;
7383;SDS011;3733;47.994;8.820;2023-03-11T05:44:33;6.70;;;1.60;;
7383;SDS011;3733;47.994;8.820;2023-03-11T05:46:59;2.13;;;1.63;;
7383;SDS011;3733;47.994;8.820;2023-03-11T05:49:25;4.00;;;1.70;;
7383;SDS011;3733;47.994;8.820;2023-03-11T05:51:50;2.03;;;1.70;;
7383;SDS011;3733;47.994;8.820;2023-03-11T05:54:18;2.40;;;1.50;;
7383;SDS011;3733;47.994;8.820;2023-03-11T05:56:45;2.20;;;1.60;;
7383;SDS011;3733;47.994;8.820;2023-03-11T05:59:11;2.20;;;2.00;;
7383;SDS011;3733;47.994;8.820;2023-03-11T06:01:38;4.20;;;1.70;;
7383;SDS011;3733;47.994;8.820;2023-03-11T06:04:04;2.43;;;1.57;;
7383;SDS011;3733;47.994;8.820;2023-03-11T06:06:30;6.80;;;2.03;;
7383;SDS011;3733;47.994;8.820;2023-03-11T06:08:56;3.63;;;1.53;;
7383;SDS011;3733;47.994;8.820;2023-03-11T06:11:22;2.27;;;1.70;;
7383;SDS011;3733;47.994;8.820;2023-03-11T06:13:51;1.80;;;1.70;;
7383;SDS011;3733;47.994;8.820;2023-03-11T06:16:21;2.30;;;2.10;;
7383;SDS011;3733;47.994;8.820;2023-03-11T06:18:47;2.43;;;2.00;;
7383;SDS011;3733;47.994;8.820;2023-03-11T06:21:16;2.63;;;2.03;;
7383;SDS011;3733;47.994;8.820;2023-03-11T06:23:44;3.10;;;1.80;;
7383;SDS011;3733;47.994;8.820;2023-03-11T06:26:14;2.17;;;2.07;;
7383;SDS011;3733;47.994;8.820;2023-03-11T06:28:42;2.97;;;1.67;;
7383;SDS011;3733;47.994;8.820;2023-03-11T06:31:10;1.87;;;1.50;;
7383;SDS011;3733;47.994;8.820;2023-03-11T06:33:38;3.23;;;2.03;;
7383;SDS011;3733;47.994;8.820;2023-03-11T06:36:04;2.93;;;1.77;;
7383;SDS011;3733;47.994;8.820;2023-03-11T06:38:30;3.03;;;1.90;;
7383;SDS011;3733;47.994;8.820;2023-03-11T06:40:57;1.97;;;1.80;;
7383;SDS011;3733;47.994;8.820;2023-03-11T06:43:24;5.13;;;2.63;;
7383;SDS011;3733;47.994;8.820;2023-03-11T06:45:50;4.67;;;2.90;;
7383;SDS011;3733;47.994;8.820;2023-03-11T06:48:15;5.90;;;2.67;;
7383;SDS011;3733;47.994;8.820;2023-03-11T06:50:41;3.23;;;2.00;;
7383;SDS011;3733;47.994;8.820;2023-03-11T06:53:06;2.97;;;2.27;;
7383;SDS011;3733;47.994;8.820;2023-03-11T06:55:32;3.07;;;1.80;;
7383;SDS011;3733;47.994;8.820;2023-03-11T06:57:59;4.93;;;2.70;;
7383;SDS011;3733;47.994;8.820;2023-03-11T07:00:24;1.80;;;1.70;;
7383;SDS011;3733;47.994;8.820;2023-03-11T07:02:50;3.50;;;2.00;;
7383;SDS011;3733;47.994;8.820;2023-03-11T07:05:16;3.63;;;2.00;;
7383;SDS011;3733;47.994;8.820;2023-03-11T07:07:42;2.00;;;1.90;;
7383;SDS011;3733;47.994;8.820;2023-03-11T07:10:08;5.80;;;2.60;;
7383;SDS011;3733;47.994;8.820;2023-03-11T07:12:34;6.50;;;1.90;;
7383;SDS011;3733;47.994;8.820;2023-03-11T07:14:59;5.10;;;1.97;;
7383;SDS011;3733;47.994;8.820;2023-03-11T07:17:26;3.93;;;2.17;;
7383;SDS011;3733;47.994;8.820;2023-03-11T07:19:52;2.93;;;2.00;;
7383;SDS011;3733;47.994;8.820;2023-03-11T07:22:17;2.13;;;2.00;;
7383;SDS011;3733;47.994;8.820;2023-03-11T07:24:49;8.43;;;2.47;;
7383;SDS011;3733;47.994;8.820;2023-03-11T07:27:15;2.53;;;1.90;;
7383;SDS011;3733;47.994;8.820;2023-03-11T07:29:40;2.40;;;1.90;;
7383;SDS011;3733;47.994;8.820;2023-03-11T07:32:06;2.03;;;1.90;;
7383;SDS011;3733;47.994;8.820;2023-03-11T07:34:32;2.30;;;2.20;;
7383;SDS011;3733;47.994;8.820;2023-03-11T07:36:58;2.60;;;2.20;;
7383;SDS011;3733;47.994;8.820;2023-03-11T07:39:23;3.13;;;2.23;;
7383;SDS011;3733;47.994;8.820;2023-03-11T07:41:49;3.70;;;2.50;;
7383;SDS011;3733;47.994;8.820;2023-03-11T07:44:15;4.87;;;2.10;;
7383;SDS011;3733;47.994;8.820;2023-03-11T07:46:41;2.47;;;2.27;;
7383;SDS011;3733;47.994;8.820;2023-03-11T07:49:07;4.57;;;2.70;;
7383;SDS011;3733;47.994;8.820;2023-03-11T07:51:34;3.33;;;2.37;;
7383;SDS011;3733;47.994;8.820;2023-03-11T07:54:00;2.47;;;2.13;;
7383;SDS011;3733;47.994;8.820;2023-03-11T07:56:29;2.90;;;1.80;;
7383;SDS011;3733;47.994;8.820;2023-03-11T07:58:57;5.47;;;2.50;;
7383;SDS011;3733;47.994;8.820;2023-03-11T08:01:24;8.30;;;2.27;;
7383;SDS011;3733;47.994;8.820;2023-03-11T08:03:54;8.27;;;2.30;;
7383;SDS011;3733;47.994;8.820;2023-03-11T08:06:25;2.30;;;2.10;;
7383;SDS011;3733;47.994;8.820;2023-03-11T08:08:55;5.20;;;2.40;;
7383;SDS011;3733;47.994;8.820;2023-03-11T08:11:21;4.60;;;2.30;;
7383;SDS011;3733;47.994;8.820;2023-03-11T08:13:48;4.10;;;1.93;;
7383;SDS011;3733;47.994;8.820;2023-03-11T08:16:15;4.57;;;2.13;;
7383;SDS011;3733;47.994;8.820;2023-03-11T08:18:42;1.83;;;1.73;;
7383;SDS011;3733;47.994;8.820;2023-03-11T08:21:14;3.73;;;2.23;;
7383;SDS011;3733;47.994;8.820;2023-03-11T08:23:41;3.70;;;1.97;;
7383;SDS011;3733;47.994;8.820;2023-03-11T08:26:09;2.50;;;1.77;;
7383;SDS011;3733;47.994;8.820;2023-03-11T08:28:36;2.90;;;2.10;;
7383;SDS011;3733;47.994;8.820;2023-03-11T08:31:02;2.30;;;2.10;;
7383;SDS011;3733;47.994;8.820;2023-03-11T08:33:36;3.40;;;2.37;;
7383;SDS011;3733;47.994;8.820;2023-03-11T08:36:01;2.50;;;1.73;;
7383;SDS011;3733;47.994;8.820;2023-03-11T08:38:27;5.20;;;1.93;;
7383;SDS011;3733;47.994;8.820;2023-03-11T08:40:53;3.00;;;1.93;;
7383;SDS011;3733;47.994;8.820;2023-03-11T08:43:18;1.67;;;1.57;;
7383;SDS011;3733;47.994;8.820;2023-03-11T08:45:44;1.70;;;1.40;;
7383;SDS011;3733;47.994;8.820;2023-03-11T08:48:10;5.53;;;1.77;;
7383;SDS011;3733;47.994;8.820;2023-03-11T08:50:38;6.13;;;2.10;;
7383;SDS011;3733;47.994;8.820;2023-03-11T08:53:06;4.47;;;1.53;;
7383;SDS011;3733;47.994;8.820;2023-03-11T08:55:32;1.80;;;1.70;;
7383;SDS011;3733;47.994;8.820;2023-03-11T08:57:58;2.57;;;2.13;;
7383;SDS011;3733;47.994;8.820;2023-03-11T09:00:23;2.00;;;1.80;;
7383;SDS011;3733;47.994;8.820;2023-03-11T09:02:49;3.00;;;2.23;;
7383;SDS011;3733;47.994;8.820;2023-03-11T09:05:15;3.33;;;1.87;;
7383;SDS011;3733;47.994;8.820;2023-03-11T09:07:40;3.70;;;2.10;;
7383;SDS011;3733;47.994;8.820;2023-03-11T09:10:06;3.30;;;1.40;;
7383;SDS011;3733;47.994;8.820;2023-03-11T09:12:32;1.40;;;1.30;;
7383;SDS011;3733;47.994;8.820;2023-03-11T09:14:58;2.93;;;1.50;;
7383;SDS011;3733;47.994;8.820;2023-03-11T09:17:23;1.77;;;1.50;;
7383;SDS011;3733;47.994;8.820;2023-03-11T09:19:49;2.67;;;1.57;;
7383;SDS011;3733;47.994;8.820;2023-03-11T09:22:15;3.00;;;1.70;;
7383;SDS011;3733;47.994;8.820;2023-03-11T09:24:41;1.40;;;1.30;;
7383;SDS011;3733;47.994;8.820;2023-03-11T09:27:06;4.70;;;1.70;;
7383;SDS011;3733;47.994;8.820;2023-03-11T09:29:32;2.27;;;1.80;;
7383;SDS011;3733;47.994;8.820;2023-03-11T09:31:58;6.27;;;1.80;;
7383;SDS011;3733;47.994;8.820;2023-03-11T09:34:23;1.40;;;1.30;;
7383;SDS011;3733;47.994;8.820;2023-03-11T09:36:49;6.63;;;1.30;;
7383;SDS011;3733;47.994;8.820;2023-03-11T09:39:15;5.10;;;1.40;;
7383;SDS011;3733;47.994;8.820;2023-03-11T09:42:02;3.87;;;1.80;;
7383;SDS011;3733;47.994;8.820;2023-03-11T09:47:58;3.57;;;1.90;;
7383;SDS011;3733;47.994;8.820;2023-03-11T09:58:12;4.70;;;1.97;;
7383;SDS011;3733;47.994;8.820;2023-03-11T10:00:56;2.80;;;2.00;;
7383;SDS011;3733;47.994;8.820;2023-03-11T10:06:00;2.60;;;1.77;;
7383;SDS011;3733;47.994;8.820;2023-03-11T10:08:33;4.40;;;1.93;;
7383;SDS011;3733;47.994;8.820;2023-03-11T10:11:22;3.50;;;1.80;;
7383;SDS011;3733;47.994;8.820;2023-03-11T10:17:12;4.53;;;1.70;;
7383;SDS011;3733;47.994;8.820;2023-03-11T10:20:03;5.50;;;1.63;;
7383;SDS011;3733;47.994;8.820;2023-03-11T10:25:20;4.53;;;1.50;;
7383;SDS011;3733;47.994;8.820;2023-03-11T10:28:07;2.40;;;1.90;;
7383;SDS011;3733;47.994;8.820;2023-03-11T10:30:47;3.53;;;1.60;;
7383;SDS011;3733;47.994;8.820;2023-03-11T10:36:45;3.80;;;1.80;;
7383;SDS011;3733;47.994;8.820;2023-03-11T10:38:54;2.30;;;1.70;;
7383;SDS011;3733;47.994;8.820;2023-03-11T10:44:15;1.70;;;1.60;;
7383;SDS011;3733;47.994;8.820;2023-03-11T10:46:42;3.83;;;1.80;;
7383;SDS011;3733;47.994;8.820;2023-03-11T10:49:12;1.80;;;1.50;;
7383;SDS011;3733;47.994;8.820;2023-03-11T10:51:39;2.13;;;1.50;;
7383;SDS011;3733;47.994;8.820;2023-03-11T10:54:10;2.00;;;1.90;;
7383;SDS011;3733;47.994;8.820;2023-03-11T10:56:53;11.53;;;1.80;;
7383;SDS011;3733;47.994;8.820;2023-03-11T11:01:55;1.87;;;1.70;;
7383;SDS011;3733;47.994;8.820;2023-03-11T11:04:28;1.60;;;1.50;;
7383;SDS011;3733;47.994;8.820;2023-03-11T11:07:06;2.17;;;1.77;;
7383;SDS011;3733;47.994;8.820;2023-03-11T11:17:59;2.67;;;1.53;;
7383;SDS011;3733;47.994;8.820;2023-03-11T11:20:28;1.43;;;1.33;;
7383;SDS011;3733;47.994;8.820;2023-03-11T11:22:55;2.70;;;1.60;;
7383;SDS011;3733;47.994;8.820;2023-03-11T11:27:59;3.80;;;1.80;;
7383;SDS011;3733;47.994;8.820;2023-03-11T11:30:38;2.30;;;1.60;;
7383;SDS011;3733;47.994;8.820;2023-03-11T11:33:22;3.03;;;1.77;;
7383;SDS011;3733;47.994;8.820;2023-03-11T11:36:03;1.70;;;1.60;;
7383;SDS011;3733;47.994;8.820;2023-03-11T11:38:30;4.73;;;2.40;;
7383;SDS011;3733;47.994;8.820;2023-03-11T11:40:57;2.00;;;1.60;;
7383;SDS011;3733;47.994;8.820;2023-03-11T11:46:10;3.53;;;1.60;;
7383;SDS011;3733;47.994;8.820;2023-03-11T11:49:38;2.23;;;1.83;;
7383;SDS011;3733;47.994;8.820;2023-03-11T11:51:50;1.73;;;1.50;;
7383;SDS011;3733;47.994;8.820;2023-03-11T11:57:01;2.60;;;1.20;;
7383;SDS011;3733;47.994;8.820;2023-03-11T11:59:36;3.57;;;1.80;;
7383;SDS011;3733;47.994;8.820;2023-03-11T12:07:56;2.80;;;1.60;;
7383;SDS011;3733;47.994;8.820;2023-03-11T12:10:32;2.60;;;1.73;;
7383;SDS011;3733;47.994;8.820;2023-03-11T12:26:57;1.93;;;1.73;;
7383;SDS011;3733;47.994;8.820;2023-03-11T12:29:37;6.03;;;1.60;;
7383;SDS011;3733;47.994;8.820;2023-03-11T12:32:08;2.40;;;1.60;;
7383;SDS011;3733;47.994;8.820;2023-03-11T12:35:00;4.20;;;1.70;;
7383;SDS011;3733;47.994;8.820;2023-03-11T12:37:53;2.30;;;1.60;;
7383;SDS011;3733;47.994;8.820;2023-03-11T12:43:24;2.67;;;1.60;;
7383;SDS011;3733;47.994;8.820;2023-03-11T12:45:54;4.20;;;1.90;;
7383;SDS011;3733;47.994;8.820;2023-03-11T12:50:51;2.27;;;1.97;;
7383;SDS011;3733;47.994;8.820;2023-03-11T12:53:18;2.50;;;1.67;;
7383;SDS011;3733;47.994;8.820;2023-03-11T12:56:00;1.70;;;1.60;;
7383;SDS011;3733;47.994;8.820;2023-03-11T12:58:42;3.77;;;1.80;;
7383;SDS011;3733;47.994;8.820;2023-03-11T13:01:28;5.37;;;1.50;;
7383;SDS011;3733;47.994;8.820;2023-03-11T13:09:57;2.03;;;1.83;;
7383;SDS011;3733;47.994;8.820;2023-03-11T13:12:48;2.20;;;1.50;;
7383;SDS011;3733;47.994;8.820;2023-03-11T13:25:39;3.70;;;1.70;;
7383;SDS011;3733;47.994;8.820;2023-03-11T13:41:12;2.20;;;1.50;;
7383;SDS011;3733;47.994;8.820;2023-03-11T13:43:46;1.53;;;1.40;;
7383;SDS011;3733;47.994;8.820;2023-03-11T13:49:01;1.60;;;1.50;;
7383;SDS011;3733;47.994;8.820;2023-03-11T13:51:49;2.07;;;1.63;;
7383;SDS011;3733;47.994;8.820;2023-03-11T13:56:50;4.73;;;2.13;;
7383;SDS011;3733;47.994;8.820;2023-03-11T13:59:24;2.10;;;1.90;;
7383;SDS011;3733;47.994;8.820;2023-03-11T14:01:53;2.00;;;1.80;;
7383;SDS011;3733;47.994;8.820;2023-03-11T14:04:24;5.83;;;2.30;;
7383;SDS011;3733;47.994;8.820;2023-03-11T14:06:52;1.87;;;1.70;;
7383;SDS011;3733;47.994;8.820;2023-03-11T14:09:18;3.07;;;1.80;;
7383;SDS011;3733;47.994;8.820;2023-03-11T14:11:45;2.10;;;1.90;;
7383;SDS011;3733;47.994;8.820;2023-03-11T14:16:57;3.53;;;2.10;;
7383;SDS011;3733;47.994;8.820;2023-03-11T14:19:25;4.33;;;2.10;;
7383;SDS011;3733;47.994;8.820;2023-03-11T14:21:52;2.53;;;2.00;;
7383;SDS011;3733;47.994;8.820;2023-03-11T14:24:21;1.90;;;1.80;;
7383;SDS011;3733;47.994;8.820;2023-03-11T14:26:50;2.40;;;2.10;;
7383;SDS011;3733;47.994;8.820;2023-03-11T14:29:22;3.70;;;2.00;;
7383;SDS011;3733;47.994;8.820;2023-03-11T14:32:00;2.60;;;2.40;;
7383;SDS011;3733;47.994;8.820;2023-03-11T14:34:56;2.70;;;2.30;;
7383;SDS011;3733;47.994;8.820;2023-03-11T14:37:37;3.63;;;2.30;;
7383;SDS011;3733;47.994;8.820;2023-03-11T14:40:17;2.40;;;2.20;;
7383;SDS011;3733;47.994;8.820;2023-03-11T14:42:47;3.00;;;2.53;;
7383;SDS011;3733;47.994;8.820;2023-03-11T14:45:17;4.53;;;2.23;;
7383;SDS011;3733;47.994;8.820;2023-03-11T14:50:23;2.53;;;2.30;;
7383;SDS011;3733;47.994;8.820;2023-03-11T14:53:00;3.20;;;2.53;;
7383;SDS011;3733;47.994;8.820;2023-03-11T15:03:28;2.53;;;2.33;;
7383;SDS011;3733;47.994;8.820;2023-03-11T15:08:43;13.40;;;3.07;;
7383;SDS011;3733;47.994;8.820;2023-03-11T15:13:38;3.90;;;2.50;;
7383;SDS011;3733;47.994;8.820;2023-03-11T15:16:18;4.07;;;2.20;;
7383;SDS011;3733;47.994;8.820;2023-03-11T15:18:47;2.53;;;2.33;;
7383;SDS011;3733;47.994;8.820;2023-03-11T15:21:14;3.50;;;2.80;;
7383;SDS011;3733;47.994;8.820;2023-03-11T15:23:46;2.33;;;2.17;;
7383;SDS011;3733;47.994;8.820;2023-03-11T15:28:53;5.13;;;2.40;;
7383;SDS011;3733;47.994;8.820;2023-03-11T15:31:27;3.27;;;2.50;;
7383;SDS011;3733;47.994;8.820;2023-03-11T15:33:55;3.33;;;3.03;;
7383;SDS011;3733;47.994;8.820;2023-03-11T15:36:37;3.00;;;2.40;;
7383;SDS011;3733;47.994;8.820;2023-03-11T15:42:00;3.80;;;2.30;;
7383;SDS011;3733;47.994;8.820;2023-03-11T15:44:27;3.60;;;2.37;;
7383;SDS011;3733;47.994;8.820;2023-03-11T15:47:13;3.43;;;2.60;;
7383;SDS011;3733;47.994;8.820;2023-03-11T15:49:41;4.27;;;2.90;;
7383;SDS011;3733;47.994;8.820;2023-03-11T15:52:07;3.97;;;2.83;;
7383;SDS011;3733;47.994;8.820;2023-03-11T15:54:33;6.03;;;3.90;;
7383;SDS011;3733;47.994;8.820;2023-03-11T15:56:59;5.20;;;3.93;;
7383;SDS011;3733;47.994;8.820;2023-03-11T15:59:25;5.00;;;3.70;;
7383;SDS011;3733;47.994;8.820;2023-03-11T16:01:52;5.07;;;3.60;;
7383;SDS011;3733;47.994;8.820;2023-03-11T16:04:18;13.13;;;3.80;;
7383;SDS011;3733;47.994;8.820;2023-03-11T16:06:45;6.90;;;3.60;;
7383;SDS011;3733;47.994;8.820;2023-03-11T16:09:12;8.47;;;3.43;;
7383;SDS011;3733;47.994;8.820;2023-03-11T16:11:39;7.50;;;4.40;;
7383;SDS011;3733;47.994;8.820;2023-03-11T16:14:09;8.17;;;4.27;;
7383;SDS011;3733;47.994;8.820;2023-03-11T16:16:40;7.17;;;4.63;;
7383;SDS011;3733;47.994;8.820;2023-03-11T16:19:06;8.20;;;4.70;;
7383;SDS011;3733;47.994;8.820;2023-03-11T16:21:33;4.10;;;3.40;;
7383;SDS011;3733;47.994;8.820;2023-03-11T16:24:01;2.83;;;2.47;;
7383;SDS011;3733;47.994;8.820;2023-03-11T16:26:29;3.80;;;3.27;;
7383;SDS011;3733;47.994;8.820;2023-03-11T16:28:55;4.37;;;3.17;;
7383;SDS011;3733;47.994;8.820;2023-03-11T16:31:20;3.37;;;3.00;;
7383;SDS011;3733;47.994;8.820;2023-03-11T16:33:46;4.73;;;3.10;;
7383;SDS011;3733;47.994;8.820;2023-03-11T16:36:11;4.20;;;3.13;;
7383;SDS011;3733;47.994;8.820;2023-03-11T16:38:44;4.63;;;3.47;;
7383;SDS011;3733;47.994;8.820;2023-03-11T16:41:12;2.80;;;2.50;;
7383;SDS011;3733;47.994;8.820;2023-03-11T16:43:38;3.20;;;2.90;;
7383;SDS011;3733;47.994;8.820;2023-03-11T16:46:05;4.70;;;2.70;;
7383;SDS011;3733;47.994;8.820;2023-03-11T16:48:30;7.03;;;3.93;;
7383;SDS011;3733;47.994;8.820;2023-03-11T16:50:56;5.27;;;3.03;;
7383;SDS011;3733;47.994;8.820;2023-03-11T16:53:22;2.73;;;2.53;;
7383;SDS011;3733;47.994;8.820;2023-03-11T16:55:50;3.60;;;3.03;;
7383;SDS011;3733;47.994;8.820;2023-03-11T16:58:15;4.40;;;3.10;;
7383;SDS011;3733;47.994;8.820;2023-03-11T17:00:41;4.40;;;3.40;;
7383;SDS011;3733;47.994;8.820;2023-03-11T17:03:09;3.97;;;2.60;;
7383;SDS011;3733;47.994;8.820;2023-03-11T17:05:36;5.77;;;3.70;;
7383;SDS011;3733;47.994;8.820;2023-03-11T17:08:02;5.07;;;3.10;;
7383;SDS011;3733;47.994;8.820;2023-03-11T17:10:35;11.13;;;5.20;;
7383;SDS011;3733;47.994;8.820;2023-03-11T17:13:06;10.70;;;3.93;;
7383;SDS011;3733;47.994;8.820;2023-03-11T17:15:32;10.40;;;3.77;;
7383;SDS011;3733;47.994;8.820;2023-03-11T17:18:02;4.10;;;3.03;;
7383;SDS011;3733;47.994;8.820;2023-03-11T17:20:30;4.73;;;2.13;;
7383;SDS011;3733;47.994;8.820;2023-03-11T17:22:55;3.00;;;2.10;;
7383;SDS011;3733;47.994;8.820;2023-03-11T17:25:21;4.23;;;2.37;;
7383;SDS011;3733;47.994;8.820;2023-03-11T17:27:47;3.73;;;2.33;;
7383;SDS011;3733;47.994;8.820;2023-03-11T17:30:13;7.03;;;3.20;;
7383;SDS011;3733;47.994;8.820;2023-03-11T17:32:39;6.53;;;2.40;;
7383;SDS011;3733;47.994;8.820;2023-03-11T17:35:05;4.27;;;2.30;;
7383;SDS011;3733;47.994;8.820;2023-03-11T17:37:31;2.40;;;2.20;;
7383;SDS011;3733;47.994;8.820;2023-03-11T17:39:56;4.03;;;2.80;;
7383;SDS011;3733;47.994;8.820;2023-03-11T17:42:22;3.60;;;2.40;;
7383;SDS011;3733;47.994;8.820;2023-03-11T17:44:48;10.33;;;2.47;;